^^
Your Local Weather - Clay, NY Station Historical Data
Daily Summary for February 16, 2018 Units:  English    Metric   Both
« Previous Day
Next Day »
Daily Weekly Monthly Yearly Custom
  High: Low: Average:
Temperature: 44.0 °F 23.8 °F 34 °F
Dew Point: 41.8 °F 15.0 °F 29.6 °F
Humidity: 94% 63% 84%
Wind Speed: 8.0mph 0.0mph 3.2mph
Wind Gust: 18.0mph - -
Wind- - WNW
Pressure: 30.24 in 29.58 in -
Precipitation: 0.12 in    
Historical Graphs
 
 
Tabular Data for February 16, 2018
Time Temperature Dew Point Pressure Wind Wind Speed Wind Gust Humidity Rainfall Rate (Hourly) solar
00:04 44.0 °F 41.8 °F 29.61 in NW 3.0 mph 6.0 mph 92% 0.00 in 0 W/m2
00:10 43.7 °F 41.5 °F 29.61 in NNW 3.0 mph 3.0 mph 92% 0.00 in 0 W/m2
00:16 43.5 °F 41.3 °F 29.61 in NW 3.0 mph 3.0 mph 92% 0.04 in 0 W/m2
00:22 43.3 °F 41.1 °F 29.61 in NW 2.0 mph 6.0 mph 92% 0.04 in 0 W/m2
00:28 43.1 °F 41.2 °F 29.61 in NNW 2.0 mph 6.0 mph 93% 0.04 in 0 W/m2
00:34 43.0 °F 41.1 °F 29.61 in NNW 1.0 mph 2.0 mph 93% 0.00 in 0 W/m2
00:40 42.9 °F 40.7 °F 29.62 in NNW 1.0 mph 1.0 mph 92% 0.00 in 0 W/m2
00:46 42.7 °F 40.8 °F 29.62 in NNW 1.0 mph 1.0 mph 93% 0.06 in 0 W/m2
00:52 42.5 °F 40.6 °F 29.61 in NNW 1.0 mph 2.0 mph 93% 0.06 in 0 W/m2
00:58 42.4 °F 40.5 °F 29.61 in NNW 1.0 mph 2.0 mph 93% 0.05 in 0 W/m2
01:04 42.2 °F 40.3 °F 29.61 in NNW 1.0 mph 1.0 mph 93% 0.12 in 0 W/m2
01:10 42.0 °F 40.1 °F 29.61 in Calm   1.0 mph 93% 0.07 in 0 W/m2
01:16 41.7 °F 39.8 °F 29.61 in Calm   2.0 mph 93% 0.13 in 0 W/m2
01:22 41.5 °F 39.6 °F 29.62 in Calm   1.0 mph 93% 0.07 in 0 W/m2
01:28 41.3 °F 39.4 °F 29.63 in Calm   1.0 mph 93% 0.07 in 0 W/m2
01:34 41.2 °F 39.3 °F 29.63 in Calm     93% 0.05 in 0 W/m2
01:40 41.1 °F 39.2 °F 29.62 in Calm     93% 0.10 in 0 W/m2
01:46 41.0 °F 39.1 °F 29.62 in Calm     93% 0.09 in 0 W/m2
01:52 40.9 °F 39.0 °F 29.63 in Calm     93% 0.09 in 0 W/m2
01:58 40.8 °F 38.9 °F 29.63 in Calm     93% 0.05 in 0 W/m2
02:04 40.6 °F 38.7 °F 29.62 in Calm     93% 0.00 in 0 W/m2
02:10 40.4 °F 38.5 °F 29.61 in Calm     93% 0.00 in 0 W/m2
02:16 40.0 °F 38.1 °F 29.61 in Calm     93% 0.00 in 0 W/m2
02:22 39.7 °F 37.8 °F 29.61 in Calm     93% 0.00 in 0 W/m2
02:28 39.7 °F 37.8 °F 29.61 in Calm     93% 0.00 in 0 W/m2
02:34 39.6 °F 37.7 °F 29.61 in Calm     93% 0.00 in 0 W/m2
02:40 39.5 °F 37.6 °F 29.61 in Calm     93% 0.00 in 0 W/m2
02:46 39.3 °F 37.4 °F 29.60 in Calm     93% 0.00 in 0 W/m2
02:52 39.2 °F 37.3 °F 29.60 in Calm     93% 0.00 in 0 W/m2
02:58 39.1 °F 37.2 °F 29.60 in Calm     93% 0.00 in 0 W/m2
03:04 39.0 °F 37.1 °F 29.60 in Calm     93% 0.00 in 0 W/m2
03:10 38.9 °F 37.0 °F 29.61 in Calm     93% 0.00 in 0 W/m2
03:16 38.7 °F 36.9 °F 29.60 in Calm     93% 0.00 in 0 W/m2
03:22 38.6 °F 36.8 °F 29.60 in Calm     93% 0.00 in 0 W/m2
03:28 38.5 °F 36.7 °F 29.60 in Calm     93% 0.00 in 0 W/m2
03:34 38.5 °F 36.7 °F 29.60 in Calm     93% 0.00 in 0 W/m2
03:40 38.5 °F 36.7 °F 29.59 in Calm     93% 0.00 in 0 W/m2
03:46 38.5 °F 36.7 °F 29.59 in Calm     93% 0.00 in 0 W/m2
03:52 38.5 °F 36.7 °F 29.59 in Calm     93% 0.00 in 0 W/m2
03:58 38.3 °F 36.5 °F 29.59 in Calm     93% 0.00 in 0 W/m2
04:04 38.2 °F 36.4 °F 29.58 in Calm     93% 0.00 in 0 W/m2
04:12 38.1 °F 36.3 °F 29.58 in Calm     93% 0.00 in 0 W/m2
04:18 38.0 °F 36.2 °F 29.58 in Calm     93% 0.00 in 0 W/m2
04:24 38.1 °F 36.3 °F 29.59 in Calm     93% 0.00 in 0 W/m2
04:30 38.0 °F 36.2 °F 29.58 in Calm     93% 0.00 in 0 W/m2
04:36 37.9 °F 36.1 °F 29.58 in Calm     93% 0.00 in 0 W/m2
04:42 37.9 °F 36.1 °F 29.58 in Calm     93% 0.00 in 0 W/m2
04:48 37.9 °F 36.1 °F 29.59 in Calm     93% 0.00 in 0 W/m2
04:54 37.9 °F 36.1 °F 29.59 in Calm     93% 0.00 in 0 W/m2
05:00 37.8 °F 36.0 °F 29.59 in Calm     93% 0.00 in 0 W/m2
05:06 37.8 °F 36.0 °F 29.60 in Calm     93% 0.00 in 0 W/m2
05:12 37.7 °F 35.9 °F 29.59 in Calm     93% 0.00 in 0 W/m2
05:18 37.7 °F 35.9 °F 29.60 in Calm     93% 0.00 in 0 W/m2
05:24 37.6 °F 35.8 °F 29.60 in Calm     93% 0.00 in 0 W/m2
05:30 37.6 °F 35.8 °F 29.60 in Calm     93% 0.00 in 0 W/m2
05:36 37.7 °F 35.9 °F 29.61 in Calm     93% 0.00 in 0 W/m2
05:42 37.6 °F 35.8 °F 29.61 in Calm     93% 0.00 in 0 W/m2
05:48 37.6 °F 35.8 °F 29.61 in Calm     93% 0.00 in 0 W/m2
05:54 37.5 °F 35.7 °F 29.61 in Calm     93% 0.00 in 0 W/m2
06:00 37.4 °F 35.6 °F 29.61 in Calm     93% 0.00 in 0 W/m2
06:06 37.3 °F 35.5 °F 29.61 in Calm     93% 0.00 in 0 W/m2
06:12 37.3 °F 35.5 °F 29.61 in Calm     93% 0.00 in 0 W/m2
06:18 37.3 °F 35.5 °F 29.61 in Calm     93% 0.00 in 0 W/m2
06:24 37.3 °F 35.5 °F 29.60 in Calm     93% 0.00 in 0 W/m2
06:30 37.4 °F 35.6 °F 29.61 in Calm     93% 0.00 in 0 W/m2
06:36 37.3 °F 35.5 °F 29.61 in Calm   1.0 mph 93% 0.00 in 0 W/m2
06:42 37.3 °F 35.5 °F 29.61 in Calm     93% 0.00 in 0 W/m2
06:48 37.3 °F 35.5 °F 29.60 in Calm     93% 0.00 in 0 W/m2
06:54 37.3 °F 35.5 °F 29.60 in Calm     93% 0.00 in 0 W/m2
07:00 37.3 °F 35.5 °F 29.62 in Calm     93% 0.00 in 0 W/m2
07:06 37.2 °F 35.4 °F 29.61 in Calm     93% 0.00 in 0 W/m2
07:12 37.1 °F 35.3 °F 29.61 in Calm     93% 0.00 in 0 W/m2
07:18 37.1 °F 35.5 °F 29.62 in Calm   1.0 mph 94% 0.00 in 0 W/m2
07:24 37.2 °F 35.4 °F 29.61 in Calm   1.0 mph 93% 0.00 in 0 W/m2
07:30 37.3 °F 35.5 °F 29.62 in Calm     93% 0.00 in 5 W/m2
07:36 37.3 °F 35.7 °F 29.62 in Calm     94% 0.00 in 5 W/m2
07:42 37.1 °F 35.5 °F 29.63 in Calm     94% 0.00 in 5 W/m2
07:48 37.2 °F 35.6 °F 29.63 in NNW 1.0 mph 2.0 mph 94% 0.00 in 9 W/m2
07:54 37.1 °F 35.5 °F 29.62 in NNW 1.0 mph 1.0 mph 94% 0.00 in 11 W/m2
08:00 37.1 °F 35.5 °F 29.63 in Calm   1.0 mph 94% 0.00 in 12 W/m2
08:06 37.0 °F 35.4 °F 29.63 in NNW 1.0 mph 2.0 mph 94% 0.00 in 19 W/m2
08:12 37.0 °F 35.4 °F 29.64 in Calm   1.0 mph 94% 0.00 in 26 W/m2
08:18 37.1 °F 35.5 °F 29.64 in NNW 1.0 mph 2.0 mph 94% 0.00 in 26 W/m2
08:24 37.1 °F 35.5 °F 29.64 in NNW 1.0 mph 2.0 mph 94% 0.00 in 32 W/m2
08:30 37.1 °F 35.5 °F 29.64 in NNW 1.0 mph 2.0 mph 94% 0.00 in 35 W/m2
08:36 37.0 °F 35.4 °F 29.64 in NNW 2.0 mph 2.0 mph 94% 0.00 in 33 W/m2
08:42 37.0 °F 35.4 °F 29.64 in NNW 1.0 mph 1.0 mph 94% 0.00 in 33 W/m2
08:48 37.0 °F 35.4 °F 29.64 in NNW 1.0 mph 3.0 mph 94% 0.00 in 32 W/m2
08:54 37.0 °F 35.4 °F 29.64 in NNW 1.0 mph 2.0 mph 94% 0.00 in 35 W/m2
09:00 37.0 °F 35.4 °F 29.63 in NNW 1.0 mph 1.0 mph 94% 0.00 in 35 W/m2
09:06 37.0 °F 35.4 °F 29.64 in NNW 1.0 mph 2.0 mph 94% 0.00 in 42 W/m2
09:12 37.0 °F 35.4 °F 29.64 in NNW 1.0 mph 1.0 mph 94% 0.00 in 33 W/m2
09:18 37.0 °F 35.4 °F 29.65 in NNW 1.0 mph 3.0 mph 94% 0.00 in 35 W/m2
09:24 37.0 °F 35.4 °F 29.65 in NNW 2.0 mph 3.0 mph 94% 0.00 in 35 W/m2
09:30 36.9 °F 35.3 °F 29.65 in West 2.0 mph 2.0 mph 94% 0.00 in 49 W/m2
09:36 36.9 °F 35.3 °F 29.65 in West 2.0 mph 3.0 mph 94% 0.00 in 46 W/m2
09:42 36.9 °F 35.3 °F 29.66 in NW 3.0 mph 3.0 mph 94% 0.00 in 23 W/m2
09:48 36.8 °F 35.2 °F 29.67 in WNW 3.0 mph 5.0 mph 94% 0.00 in 19 W/m2
09:54 36.7 °F 35.1 °F 29.68 in WNW 4.0 mph 8.0 mph 94% 0.00 in 19 W/m2
10:00 36.6 °F 35.0 °F 29.69 in NW 4.0 mph 4.0 mph 94% 0.00 in 16 W/m2
10:06 36.4 °F 34.8 °F 29.70 in NNW 4.0 mph 7.0 mph 94% 0.00 in 21 W/m2
10:12 36.3 °F 34.5 °F 29.69 in West 4.0 mph 5.0 mph 93% 0.00 in 19 W/m2
10:18 36.2 °F 34.4 °F 29.69 in West 3.0 mph 5.0 mph 93% 0.00 in 37 W/m2
10:24 36.0 °F 34.2 °F 29.68 in West 3.0 mph 8.0 mph 93% 0.00 in 37 W/m2
10:30 35.8 °F 34.0 °F 29.69 in WNW 4.0 mph 4.0 mph 93% 0.00 in 60 W/m2
10:36 35.7 °F 33.9 °F 29.68 in WNW 4.0 mph 7.0 mph 93% 0.00 in 102 W/m2
10:42 35.8 °F 34.0 °F 29.68 in WNW 4.0 mph 4.0 mph 93% 0.00 in 60 W/m2
10:48 35.7 °F 33.9 °F 29.69 in West 3.0 mph 4.0 mph 93% 0.00 in 39 W/m2
10:54 35.7 °F 33.9 °F 29.70 in West 3.0 mph 4.0 mph 93% 0.00 in 32 W/m2
11:00 35.7 °F 33.9 °F 29.70 in WNW 3.0 mph 3.0 mph 93% 0.00 in 40 W/m2
11:06 35.7 °F 33.9 °F 29.70 in SW 3.0 mph 3.0 mph 93% 0.00 in 47 W/m2
11:12 35.6 °F 33.8 °F 29.70 in SW 3.0 mph 3.0 mph 93% 0.00 in 39 W/m2
11:18 35.7 °F 33.9 °F 29.70 in WNW 3.0 mph 3.0 mph 93% 0.00 in 33 W/m2
11:24 35.7 °F 33.9 °F 29.71 in West 2.0 mph 3.0 mph 93% 0.00 in 44 W/m2
11:30 35.6 °F 33.8 °F 29.72 in WNW 3.0 mph 5.0 mph 93% 0.00 in 28 W/m2
11:36 35.5 °F 33.7 °F 29.72 in West 4.0 mph 5.0 mph 93% 0.00 in 33 W/m2
11:42 35.3 °F 33.5 °F 29.71 in NW 4.0 mph 4.0 mph 93% 0.00 in 51 W/m2
11:48 35.3 °F 33.5 °F 29.72 in NW 3.0 mph 5.0 mph 93% 0.00 in 35 W/m2
11:54 35.2 °F 33.1 °F 29.72 in WNW 4.0 mph 6.0 mph 92% 0.00 in 42 W/m2
12:00 35.0 °F 32.9 °F 29.73 in WNW 4.0 mph 4.0 mph 92% 0.00 in 33 W/m2
12:06 35.0 °F 32.9 °F 29.73 in WSW 4.0 mph 6.0 mph 92% 0.00 in 26 W/m2
12:12 34.9 °F 32.8 °F 29.73 in West 5.0 mph 5.0 mph 92% 0.00 in 32 W/m2
12:18 34.8 °F 32.7 °F 29.73 in WNW 4.0 mph 5.0 mph 92% 0.00 in 28 W/m2
12:24 34.8 °F 32.7 °F 29.73 in WSW 3.0 mph 6.0 mph 92% 0.00 in 32 W/m2
12:30 34.8 °F 32.7 °F 29.74 in West 4.0 mph 7.0 mph 92% 0.00 in 28 W/m2
12:36 34.8 °F 32.7 °F 29.75 in WNW 5.0 mph 7.0 mph 92% 0.00 in 28 W/m2
12:42 34.8 °F 32.7 °F 29.75 in West 5.0 mph 7.0 mph 92% 0.00 in 39 W/m2
12:48 34.8 °F 32.7 °F 29.75 in West 5.0 mph 7.0 mph 92% 0.00 in 37 W/m2
12:54 34.8 °F 32.4 °F 29.75 in West 6.0 mph 12.0 mph 91% 0.00 in 37 W/m2
13:00 34.9 °F 32.5 °F 29.75 in WNW 7.0 mph 7.0 mph 91% 0.00 in 44 W/m2
13:06 34.9 °F 32.5 °F 29.75 in NNE 6.0 mph 13.0 mph 91% 0.00 in 63 W/m2
13:12 34.9 °F 32.3 °F 29.76 in West 6.0 mph 7.0 mph 90% 0.00 in 67 W/m2
13:18 35.0 °F 32.4 °F 29.76 in NW 6.0 mph 7.0 mph 90% 0.00 in 83 W/m2
13:24 35.0 °F 32.4 °F 29.76 in NW 5.0 mph 6.0 mph 90% 0.00 in 67 W/m2
13:30 34.9 °F 32.3 °F 29.76 in NW 5.0 mph 5.0 mph 90% 0.00 in 139 W/m2
13:36 34.7 °F 32.1 °F 29.77 in NW 5.0 mph 5.0 mph 90% 0.00 in 98 W/m2
13:42 34.6 °F 32.0 °F 29.77 in WNW 5.0 mph 5.0 mph 90% 0.00 in 125 W/m2
13:48 34.8 °F 32.2 °F 29.78 in NW 5.0 mph 6.0 mph 90% 0.00 in 200 W/m2
13:54 35.0 °F 32.4 °F 29.78 in WNW 4.0 mph 8.0 mph 90% 0.00 in 178 W/m2
14:00 34.8 °F 32.2 °F 29.78 in NW 5.0 mph 7.0 mph 90% 0.00 in 84 W/m2
14:06 34.6 °F 32.0 °F 29.79 in NW 5.0 mph 9.0 mph 90% 0.00 in 32 W/m2
14:12 34.5 °F 31.6 °F 29.79 in West 5.0 mph 7.0 mph 89% 0.00 in 127 W/m2
14:18 34.5 °F 31.6 °F 29.80 in NNW 6.0 mph 9.0 mph 89% 0.00 in 95 W/m2
14:24 34.4 °F 31.2 °F 29.80 in WNW 7.0 mph 11.0 mph 88% 0.00 in 37 W/m2
14:30 34.1 °F 30.6 °F 29.81 in NW 7.0 mph 12.0 mph 87% 0.00 in 42 W/m2
14:36 33.9 °F 30.4 °F 29.81 in NW 7.0 mph 12.0 mph 87% 0.00 in 98 W/m2
14:42 33.7 °F 30.0 °F 29.82 in NW 7.0 mph 10.0 mph 86% 0.00 in 79 W/m2
14:48 33.5 °F 29.8 °F 29.83 in WNW 7.0 mph 10.0 mph 86% 0.00 in 139 W/m2
14:54 33.4 °F 29.4 °F 29.83 in NW 6.0 mph 12.0 mph 85% 0.00 in 70 W/m2
15:00 33.1 °F 28.8 °F 29.83 in NW 7.0 mph 9.0 mph 84% 0.00 in 95 W/m2
15:06 33.1 °F 28.8 °F 29.84 in WNW 6.0 mph 9.0 mph 84% 0.00 in 107 W/m2
15:12 33.0 °F 28.7 °F 29.84 in NW 6.0 mph 8.0 mph 84% 0.00 in 107 W/m2
15:18 33.0 °F 28.4 °F 29.85 in West 6.0 mph 11.0 mph 83% 0.00 in 137 W/m2
15:24 33.1 °F 28.2 °F 29.85 in WNW 7.0 mph 9.0 mph 82% 0.00 in 183 W/m2
15:30 33.5 °F 28.3 °F 29.86 in NW 7.0 mph 7.0 mph 81% 0.00 in 84 W/m2
15:36 33.1 °F 27.9 °F 29.86 in West 7.0 mph 7.0 mph 81% 0.00 in 125 W/m2
15:42 33.1 °F 27.6 °F 29.87 in WNW 6.0 mph 8.0 mph 80% 0.00 in 113 W/m2
15:48 32.6 °F 26.5 °F 29.88 in NNW 7.0 mph 10.0 mph 78% 0.00 in 81 W/m2
15:54 32.6 °F 26.5 °F 29.88 in NW 7.0 mph 7.0 mph 78% 0.00 in 251 W/m2
16:00 32.7 °F 26.6 °F 29.88 in West 6.0 mph 8.0 mph 78% 0.00 in 294 W/m2
16:06 32.9 °F 26.5 °F 29.89 in WNW 6.0 mph 9.0 mph 77% 0.00 in 260 W/m2
16:14 33.2 °F 26.1 °F 29.90 in WNW 5.0 mph 6.0 mph 75% 0.00 in 237 W/m2
16:20 33.1 °F 26.4 °F 29.90 in WNW 5.0 mph 5.0 mph 76% 0.00 in 47 W/m2
16:26 32.8 °F 25.4 °F 29.91 in WNW 6.0 mph 9.0 mph 74% 0.00 in 42 W/m2
16:32 32.6 °F 25.2 °F 29.91 in WNW 7.0 mph 7.0 mph 74% 0.00 in 44 W/m2
16:38 32.5 °F 25.1 °F 29.92 in NW 6.0 mph 10.0 mph 74% 0.00 in 35 W/m2
16:44 32.2 °F 24.8 °F 29.92 in West 6.0 mph 18.0 mph 74% 0.00 in 32 W/m2
16:50 31.9 °F 24.2 °F 29.92 in West 7.0 mph 7.0 mph 73% 0.00 in 28 W/m2
16:56 31.7 °F 24.4 °F 29.93 in WNW 7.0 mph 11.0 mph 74% 0.00 in 25 W/m2
17:02 31.5 °F 23.8 °F 29.94 in WNW 6.0 mph 7.0 mph 73% 0.00 in 21 W/m2
17:08 31.4 °F 23.7 °F 29.94 in WNW 6.0 mph 11.0 mph 73% 0.00 in 19 W/m2
17:14 31.2 °F 23.5 °F 29.95 in West 7.0 mph 7.0 mph 73% 0.00 in 16 W/m2
17:20 31.0 °F 23.4 °F 29.96 in WNW 6.0 mph 7.0 mph 73% 0.00 in 14 W/m2
17:26 30.8 °F 22.8 °F 29.97 in NW 6.0 mph 16.0 mph 72% 0.00 in 11 W/m2
17:32 30.6 °F 22.6 °F 29.97 in WNW 8.0 mph 8.0 mph 72% 0.00 in 9 W/m2
17:38 30.4 °F 22.4 °F 29.98 in West 8.0 mph 13.0 mph 72% 0.00 in 5 W/m2
17:44 30.2 °F 22.3 °F 29.99 in WNW 8.0 mph 8.0 mph 72% 0.00 in 0 W/m2
17:50 30.0 °F 22.4 °F 29.99 in WNW 7.0 mph 7.0 mph 73% 0.00 in 0 W/m2
17:56 29.8 °F 22.2 °F 29.99 in NW 6.0 mph 10.0 mph 73% 0.00 in 0 W/m2
18:02 29.6 °F 22.0 °F 30.00 in WNW 7.0 mph 9.0 mph 73% 0.00 in 0 W/m2
18:08 29.5 °F 21.6 °F 30.01 in WNW 7.0 mph 16.0 mph 72% 0.00 in 0 W/m2
18:14 29.4 °F 21.2 °F 30.02 in NW 7.0 mph 8.0 mph 71% 0.00 in 0 W/m2
18:20 29.1 °F 20.9 °F 30.02 in WNW 6.0 mph 6.0 mph 71% 0.00 in 0 W/m2
18:26 29.0 °F 20.4 °F 30.03 in West 7.0 mph 10.0 mph 70% 0.00 in 0 W/m2
18:32 28.8 °F 19.6 °F 30.04 in NW 8.0 mph 10.0 mph 68% 0.00 in 0 W/m2
18:38 28.6 °F 19.0 °F 30.05 in WNW 7.0 mph 10.0 mph 67% 0.00 in 0 W/m2
18:44 28.5 °F 19.3 °F 30.05 in WNW 7.0 mph 13.0 mph 68% 0.00 in 0 W/m2
18:50 28.3 °F 19.1 °F 30.06 in NW 5.0 mph 5.0 mph 68% 0.00 in 0 W/m2
18:56 28.2 °F 18.3 °F 30.07 in WNW 7.0 mph 11.0 mph 66% 0.00 in 0 W/m2
19:02 28.0 °F 18.1 °F 30.07 in WNW 8.0 mph 9.0 mph 66% 0.00 in 0 W/m2
19:08 28.0 °F 18.1 °F 30.08 in WNW 6.0 mph 10.0 mph 66% 0.00 in 0 W/m2
19:14 27.8 °F 18.3 °F 30.08 in WNW 5.0 mph 6.0 mph 67% 0.00 in 0 W/m2
19:20 27.7 °F 18.5 °F 30.08 in NW 5.0 mph 5.0 mph 68% 0.00 in 0 W/m2
19:26 27.6 °F 18.1 °F 30.09 in NNW 6.0 mph 7.0 mph 67% 0.00 in 0 W/m2
19:32 27.7 °F 17.8 °F 30.10 in WNW 6.0 mph 8.0 mph 66% 0.00 in 0 W/m2
19:38 27.6 °F 17.4 °F 30.10 in NW 5.0 mph 8.0 mph 65% 0.00 in 0 W/m2
19:44 27.5 °F 16.9 °F 30.10 in NW 7.0 mph 7.0 mph 64% 0.00 in 0 W/m2
19:50 27.5 °F 17.3 °F 30.11 in NW 6.0 mph 6.0 mph 65% 0.00 in 0 W/m2
19:56 27.4 °F 16.8 °F 30.11 in WNW 6.0 mph 8.0 mph 64% 0.00 in 0 W/m2
20:02 27.3 °F 17.1 °F 30.11 in NW 5.0 mph 7.0 mph 65% 0.00 in 0 W/m2
20:08 27.3 °F 16.7 °F 30.12 in NW 6.0 mph 11.0 mph 64% 0.00 in 0 W/m2
20:14 27.2 °F 16.6 °F 30.13 in WNW 6.0 mph 7.0 mph 64% 0.00 in 0 W/m2
20:20 27.1 °F 16.2 °F 30.13 in NNW 6.0 mph 8.0 mph 63% 0.00 in 0 W/m2
20:26 27.0 °F 16.1 °F 30.14 in WNW 7.0 mph 8.0 mph 63% 0.00 in 0 W/m2
20:32 26.9 °F 16.3 °F 30.14 in WNW 6.0 mph 6.0 mph 64% 0.00 in 0 W/m2
20:38 26.7 °F 16.1 °F 30.15 in WNW 5.0 mph 8.0 mph 64% 0.00 in 0 W/m2
20:44 26.6 °F 16.1 °F 30.15 in WNW 6.0 mph 7.0 mph 64% 0.00 in 0 W/m2
20:50 26.4 °F 16.2 °F 30.15 in NW 5.0 mph 7.0 mph 65% 0.00 in 0 W/m2
20:56 26.3 °F 16.1 °F 30.15 in West 5.0 mph 9.0 mph 65% 0.00 in 0 W/m2
21:02 26.3 °F 16.1 °F 30.16 in WNW 6.0 mph 6.0 mph 65% 0.00 in 0 W/m2
21:08 26.2 °F 16.0 °F 30.16 in NW 6.0 mph 10.0 mph 65% 0.00 in 0 W/m2
21:14 26.0 °F 15.8 °F 30.16 in West 6.0 mph 6.0 mph 65% 0.00 in 0 W/m2
21:20 25.9 °F 16.1 °F 30.17 in NW 5.0 mph 5.0 mph 66% 0.00 in 0 W/m2
21:26 25.8 °F 16.0 °F 30.17 in West 4.0 mph 13.0 mph 66% 0.00 in 0 W/m2
21:32 25.8 °F 16.0 °F 30.17 in WNW 5.0 mph 6.0 mph 66% 0.00 in 0 W/m2
21:38 25.6 °F 15.8 °F 30.18 in WNW 4.0 mph 6.0 mph 66% 0.00 in 0 W/m2
21:44 25.6 °F 15.8 °F 30.18 in WNW 4.0 mph 10.0 mph 66% 0.00 in 0 W/m2
21:50 25.5 °F 15.7 °F 30.18 in NW 5.0 mph 5.0 mph 66% 0.00 in 0 W/m2
21:56 25.4 °F 15.6 °F 30.18 in WNW 4.0 mph 5.0 mph 66% 0.00 in 0 W/m2
22:02 25.3 °F 15.9 °F 30.19 in NW 4.0 mph 5.0 mph 67% 0.00 in 0 W/m2
22:08 25.2 °F 15.8 °F 30.19 in WNW 3.0 mph 5.0 mph 67% 0.00 in 0 W/m2
22:14 25.1 °F 15.7 °F 30.19 in WNW 3.0 mph 5.0 mph 67% 0.00 in 0 W/m2
22:20 25.0 °F 15.9 °F 30.19 in WNW 3.0 mph 3.0 mph 68% 0.00 in 0 W/m2
22:26 25.0 °F 15.9 °F 30.20 in WNW 2.0 mph 7.0 mph 68% 0.00 in 0 W/m2
22:32 25.0 °F 15.9 °F 30.20 in NW 3.0 mph 4.0 mph 68% 0.00 in 0 W/m2
22:38 24.9 °F 15.8 °F 30.21 in WNW 3.0 mph 5.0 mph 68% 0.00 in 0 W/m2
22:44 24.9 °F 15.8 °F 30.21 in NW 3.0 mph 3.0 mph 68% 0.00 in 0 W/m2
22:50 24.8 °F 15.7 °F 30.21 in WNW 3.0 mph 4.0 mph 68% 0.00 in 0 W/m2
22:56 24.7 °F 15.6 °F 30.21 in WNW 3.0 mph 5.0 mph 68% 0.00 in 0 W/m2
23:02 24.6 °F 15.5 °F 30.21 in NW 3.0 mph 5.0 mph 68% 0.00 in 0 W/m2
23:08 24.5 °F 15.8 °F 30.22 in NW 2.0 mph 5.0 mph 69% 0.00 in 0 W/m2
23:14 24.4 °F 15.7 °F 30.22 in NW 1.0 mph 3.0 mph 69% 0.00 in 0 W/m2
23:20 24.2 °F 15.5 °F 30.22 in NW 2.0 mph 4.0 mph 69% 0.00 in 0 W/m2
23:26 24.3 °F 15.3 °F 30.22 in NW 3.0 mph 6.0 mph 68% 0.00 in 0 W/m2
23:32 24.3 °F 15.3 °F 30.22 in WNW 3.0 mph 3.0 mph 68% 0.00 in 0 W/m2
23:38 24.1 °F 15.1 °F 30.23 in WNW 2.0 mph 3.0 mph 68% 0.00 in 0 W/m2
23:44 24.1 °F 15.1 °F 30.23 in NW 2.0 mph 3.0 mph 68% 0.00 in 0 W/m2
23:50 24.0 °F 15.0 °F 30.23 in WNW 2.0 mph 2.0 mph 68% 0.00 in 0 W/m2
23:56 23.8 °F 15.1 °F 30.24 in WNW 1.0 mph 2.0 mph 69% 0.00 in 0 W/m2
Country Meadow, Clay, NY, USA
Compliments of Weather Underground - 2 mb